sensor_id;sensor_type;location;lat;lon;timestamp;temperature;humidity
41294;DHT22;27037;52.010;4.446;2023-12-07T00:01:18;1.90;99.90
41294;DHT22;27037;52.010;4.446;2023-12-07T00:03:44;1.90;99.90
41294;DHT22;27037;52.010;4.446;2023-12-07T00:06:10;1.80;99.90
41294;DHT22;27037;52.010;4.446;2023-12-07T00:08:35;1.80;99.90
41294;DHT22;27037;52.010;4.446;2023-12-07T00:11:01;1.80;99.90
41294;DHT22;27037;52.010;4.446;2023-12-07T00:13:27;1.70;99.90
41294;DHT22;27037;52.010;4.446;2023-12-07T00:15:52;1.70;99.90
41294;DHT22;27037;52.010;4.446;2023-12-07T00:18:18;1.70;99.90
41294;DHT22;27037;52.010;4.446;2023-12-07T00:20:44;1.70;99.90
41294;DHT22;27037;52.010;4.446;2023-12-07T00:23:10;1.60;99.90
41294;DHT22;27037;52.010;4.446;2023-12-07T00:25:36;1.60;99.90
41294;DHT22;27037;52.010;4.446;2023-12-07T00:28:01;1.60;99.90
41294;DHT22;27037;52.010;4.446;2023-12-07T00:30:28;1.60;99.90
41294;DHT22;27037;52.010;4.446;2023-12-07T00:32:53;1.50;99.90
41294;DHT22;27037;52.010;4.446;2023-12-07T00:35:19;1.50;99.90
41294;DHT22;27037;52.010;4.446;2023-12-07T00:37:47;1.50;99.90
41294;DHT22;27037;52.010;4.446;2023-12-07T00:40:13;1.50;99.90
41294;DHT22;27037;52.010;4.446;2023-12-07T00:42:39;1.50;99.90
41294;DHT22;27037;52.010;4.446;2023-12-07T00:45:05;1.50;99.90
41294;DHT22;27037;52.010;4.446;2023-12-07T00:47:31;1.50;99.90
41294;DHT22;27037;52.010;4.446;2023-12-07T00:49:56;1.40;99.90
41294;DHT22;27037;52.010;4.446;2023-12-07T00:52:22;1.40;99.90
41294;DHT22;27037;52.010;4.446;2023-12-07T00:54:47;1.40;99.90
41294;DHT22;27037;52.010;4.446;2023-12-07T00:57:13;1.40;99.90
41294;DHT22;27037;52.010;4.446;2023-12-07T00:59:38;1.40;99.90
41294;DHT22;27037;52.010;4.446;2023-12-07T01:02:04;1.40;99.90
41294;DHT22;27037;52.010;4.446;2023-12-07T01:04:30;1.40;99.90
41294;DHT22;27037;52.010;4.446;2023-12-07T01:06:57;1.40;99.90
41294;DHT22;27037;52.010;4.446;2023-12-07T01:09:22;1.30;99.90
41294;DHT22;27037;52.010;4.446;2023-12-07T01:11:48;1.30;99.90
41294;DHT22;27037;52.010;4.446;2023-12-07T01:14:14;1.30;99.90
41294;DHT22;27037;52.010;4.446;2023-12-07T01:16:40;1.30;99.90
41294;DHT22;27037;52.010;4.446;2023-12-07T01:19:05;1.30;99.90
41294;DHT22;27037;52.010;4.446;2023-12-07T01:21:32;1.30;99.90
41294;DHT22;27037;52.010;4.446;2023-12-07T01:23:59;1.20;99.90
41294;DHT22;27037;52.010;4.446;2023-12-07T01:26:25;1.20;99.90
41294;DHT22;27037;52.010;4.446;2023-12-07T01:28:51;1.20;99.90
41294;DHT22;27037;52.010;4.446;2023-12-07T01:31:16;1.30;99.90
41294;DHT22;27037;52.010;4.446;2023-12-07T01:33:45;1.30;99.90
41294;DHT22;27037;52.010;4.446;2023-12-07T01:36:11;1.30;99.90
41294;DHT22;27037;52.010;4.446;2023-12-07T01:38:37;1.30;99.90
41294;DHT22;27037;52.010;4.446;2023-12-07T01:41:03;1.30;99.90
41294;DHT22;27037;52.010;4.446;2023-12-07T01:43:28;1.30;99.90
41294;DHT22;27037;52.010;4.446;2023-12-07T01:45:56;1.30;99.90
41294;DHT22;27037;52.010;4.446;2023-12-07T01:48:24;1.30;99.90
41294;DHT22;27037;52.010;4.446;2023-12-07T01:50:51;1.30;99.90
41294;DHT22;27037;52.010;4.446;2023-12-07T01:53:17;1.40;99.90
41294;DHT22;27037;52.010;4.446;2023-12-07T01:55:43;1.40;99.90
41294;DHT22;27037;52.010;4.446;2023-12-07T01:58:10;1.40;99.90
41294;DHT22;27037;52.010;4.446;2023-12-07T02:00:35;1.40;99.90
41294;DHT22;27037;52.010;4.446;2023-12-07T02:03:05;1.40;99.90
41294;DHT22;27037;52.010;4.446;2023-12-07T02:05:31;1.50;99.90
41294;DHT22;27037;52.010;4.446;2023-12-07T02:07:58;1.40;99.90
41294;DHT22;27037;52.010;4.446;2023-12-07T02:10:24;1.40;99.90
41294;DHT22;27037;52.010;4.446;2023-12-07T02:12:51;1.50;99.90
41294;DHT22;27037;52.010;4.446;2023-12-07T02:15:18;1.50;99.90
41294;DHT22;27037;52.010;4.446;2023-12-07T02:17:48;1.50;99.90
41294;DHT22;27037;52.010;4.446;2023-12-07T02:20:37;1.50;99.90
41294;DHT22;27037;52.010;4.446;2023-12-07T02:23:07;1.50;99.90
41294;DHT22;27037;52.010;4.446;2023-12-07T02:25:40;1.50;99.90
41294;DHT22;27037;52.010;4.446;2023-12-07T02:28:09;1.50;99.90
41294;DHT22;27037;52.010;4.446;2023-12-07T02:30:35;1.50;99.90
41294;DHT22;27037;52.010;4.446;2023-12-07T02:33:01;1.50;99.90
41294;DHT22;27037;52.010;4.446;2023-12-07T02:35:27;1.50;99.90
41294;DHT22;27037;52.010;4.446;2023-12-07T02:37:53;1.50;99.90
41294;DHT22;27037;52.010;4.446;2023-12-07T02:40:25;1.50;99.90
41294;DHT22;27037;52.010;4.446;2023-12-07T02:42:53;1.60;99.90
41294;DHT22;27037;52.010;4.446;2023-12-07T02:45:19;1.60;99.90
41294;DHT22;27037;52.010;4.446;2023-12-07T02:47:45;1.70;99.90
41294;DHT22;27037;52.010;4.446;2023-12-07T02:50:12;1.70;99.90
41294;DHT22;27037;52.010;4.446;2023-12-07T02:52:38;1.80;99.90
41294;DHT22;27037;52.010;4.446;2023-12-07T02:55:04;1.90;99.90
41294;DHT22;27037;52.010;4.446;2023-12-07T02:57:29;2.00;99.90
41294;DHT22;27037;52.010;4.446;2023-12-07T02:59:56;2.10;99.90
41294;DHT22;27037;52.010;4.446;2023-12-07T03:02:21;2.10;99.90
41294;DHT22;27037;52.010;4.446;2023-12-07T03:04:47;2.20;99.90
41294;DHT22;27037;52.010;4.446;2023-12-07T03:07:13;2.20;99.90
41294;DHT22;27037;52.010;4.446;2023-12-07T03:09:38;2.30;99.90
41294;DHT22;27037;52.010;4.446;2023-12-07T03:12:04;2.30;99.90
41294;DHT22;27037;52.010;4.446;2023-12-07T03:14:30;2.30;99.90
41294;DHT22;27037;52.010;4.446;2023-12-07T03:16:55;2.30;99.90
41294;DHT22;27037;52.010;4.446;2023-12-07T03:19:21;2.30;99.90
41294;DHT22;27037;52.010;4.446;2023-12-07T03:21:47;2.30;99.90
41294;DHT22;27037;52.010;4.446;2023-12-07T03:24:12;2.30;99.90
41294;DHT22;27037;52.010;4.446;2023-12-07T03:26:38;2.30;99.90
41294;DHT22;27037;52.010;4.446;2023-12-07T03:29:04;2.30;99.90
41294;DHT22;27037;52.010;4.446;2023-12-07T03:31:29;2.20;99.90
41294;DHT22;27037;52.010;4.446;2023-12-07T03:33:55;2.20;99.90
41294;DHT22;27037;52.010;4.446;2023-12-07T03:36:21;2.20;99.90
41294;DHT22;27037;52.010;4.446;2023-12-07T03:38:48;2.20;99.90
41294;DHT22;27037;52.010;4.446;2023-12-07T03:41:13;2.20;99.90
41294;DHT22;27037;52.010;4.446;2023-12-07T03:43:39;2.20;99.90
41294;DHT22;27037;52.010;4.446;2023-12-07T03:46:06;2.20;99.90
41294;DHT22;27037;52.010;4.446;2023-12-07T03:48:32;2.20;99.90
41294;DHT22;27037;52.010;4.446;2023-12-07T03:50:58;2.20;99.90
41294;DHT22;27037;52.010;4.446;2023-12-07T03:53:24;2.20;99.90
41294;DHT22;27037;52.010;4.446;2023-12-07T03:55:49;2.20;99.90
41294;DHT22;27037;52.010;4.446;2023-12-07T03:58:15;2.20;99.90
41294;DHT22;27037;52.010;4.446;2023-12-07T04:00:41;2.10;99.90
41294;DHT22;27037;52.010;4.446;2023-12-07T04:03:06;2.10;99.90
41294;DHT22;27037;52.010;4.446;2023-12-07T04:05:33;2.10;99.90
41294;DHT22;27037;52.010;4.446;2023-12-07T04:07:58;2.10;99.90
41294;DHT22;27037;52.010;4.446;2023-12-07T04:10:24;2.10;99.90
41294;DHT22;27037;52.010;4.446;2023-12-07T04:12:50;2.10;99.90
41294;DHT22;27037;52.010;4.446;2023-12-07T04:15:18;2.10;99.90
41294;DHT22;27037;52.010;4.446;2023-12-07T04:17:43;2.00;99.90
41294;DHT22;27037;52.010;4.446;2023-12-07T04:20:09;2.00;99.90
41294;DHT22;27037;52.010;4.446;2023-12-07T04:22:35;2.00;99.90
41294;DHT22;27037;52.010;4.446;2023-12-07T04:25:00;2.00;99.90
41294;DHT22;27037;52.010;4.446;2023-12-07T04:27:26;2.00;99.90
41294;DHT22;27037;52.010;4.446;2023-12-07T04:29:52;2.00;99.90
41294;DHT22;27037;52.010;4.446;2023-12-07T04:32:17;1.90;99.90
41294;DHT22;27037;52.010;4.446;2023-12-07T04:34:43;1.90;99.90
41294;DHT22;27037;52.010;4.446;2023-12-07T04:37:08;1.90;99.90
41294;DHT22;27037;52.010;4.446;2023-12-07T04:39:35;1.80;99.90
41294;DHT22;27037;52.010;4.446;2023-12-07T04:42:01;1.80;99.90
41294;DHT22;27037;52.010;4.446;2023-12-07T04:44:26;1.80;99.90
41294;DHT22;27037;52.010;4.446;2023-12-07T04:46:52;1.70;99.90
41294;DHT22;27037;52.010;4.446;2023-12-07T04:49:18;1.70;99.90
41294;DHT22;27037;52.010;4.446;2023-12-07T04:51:43;1.60;99.90
41294;DHT22;27037;52.010;4.446;2023-12-07T04:54:12;1.50;99.90
41294;DHT22;27037;52.010;4.446;2023-12-07T04:56:40;1.50;99.90
41294;DHT22;27037;52.010;4.446;2023-12-07T04:59:06;1.50;99.90
41294;DHT22;27037;52.010;4.446;2023-12-07T05:01:31;1.40;99.90
41294;DHT22;27037;52.010;4.446;2023-12-07T05:03:57;1.40;99.90
41294;DHT22;27037;52.010;4.446;2023-12-07T05:06:22;1.40;99.90
41294;DHT22;27037;52.010;4.446;2023-12-07T05:08:48;1.40;99.90
41294;DHT22;27037;52.010;4.446;2023-12-07T05:11:14;1.40;99.90
41294;DHT22;27037;52.010;4.446;2023-12-07T05:13:39;1.40;99.90
41294;DHT22;27037;52.010;4.446;2023-12-07T05:16:05;1.40;99.90
41294;DHT22;27037;52.010;4.446;2023-12-07T05:18:31;1.40;99.90
41294;DHT22;27037;52.010;4.446;2023-12-07T05:20:56;1.40;99.90
41294;DHT22;27037;52.010;4.446;2023-12-07T05:23:22;1.40;99.90
41294;DHT22;27037;52.010;4.446;2023-12-07T05:25:47;1.40;99.90
41294;DHT22;27037;52.010;4.446;2023-12-07T05:28:13;1.40;99.90
41294;DHT22;27037;52.010;4.446;2023-12-07T05:30:38;1.40;99.90
41294;DHT22;27037;52.010;4.446;2023-12-07T05:33:04;1.40;99.90
41294;DHT22;27037;52.010;4.446;2023-12-07T05:35:30;1.40;99.90
41294;DHT22;27037;52.010;4.446;2023-12-07T05:37:55;1.40;99.90
41294;DHT22;27037;52.010;4.446;2023-12-07T05:40:21;1.40;99.90
41294;DHT22;27037;52.010;4.446;2023-12-07T05:42:49;1.40;99.90
41294;DHT22;27037;52.010;4.446;2023-12-07T05:45:15;1.40;99.90
41294;DHT22;27037;52.010;4.446;2023-12-07T05:47:41;1.40;99.90
41294;DHT22;27037;52.010;4.446;2023-12-07T05:50:07;1.40;99.90
41294;DHT22;27037;52.010;4.446;2023-12-07T05:52:33;1.40;99.90
41294;DHT22;27037;52.010;4.446;2023-12-07T05:54:58;1.40;99.90
41294;DHT22;27037;52.010;4.446;2023-12-07T05:57:24;1.40;99.90
41294;DHT22;27037;52.010;4.446;2023-12-07T05:59:49;1.40;99.90
41294;DHT22;27037;52.010;4.446;2023-12-07T06:02:15;1.40;99.90
41294;DHT22;27037;52.010;4.446;2023-12-07T06:04:41;1.50;99.90
41294;DHT22;27037;52.010;4.446;2023-12-07T06:07:06;1.50;99.90
41294;DHT22;27037;52.010;4.446;2023-12-07T06:09:32;1.50;99.90
41294;DHT22;27037;52.010;4.446;2023-12-07T06:11:58;1.50;99.90
41294;DHT22;27037;52.010;4.446;2023-12-07T06:14:23;1.50;99.90
41294;DHT22;27037;52.010;4.446;2023-12-07T06:16:49;1.60;99.90
41294;DHT22;27037;52.010;4.446;2023-12-07T06:19:15;1.60;99.90
41294;DHT22;27037;52.010;4.446;2023-12-07T06:21:40;1.60;99.90
41294;DHT22;27037;52.010;4.446;2023-12-07T06:24:06;1.60;99.90
41294;DHT22;27037;52.010;4.446;2023-12-07T06:26:32;1.60;99.90
41294;DHT22;27037;52.010;4.446;2023-12-07T06:28:58;1.70;99.90
41294;DHT22;27037;52.010;4.446;2023-12-07T06:31:24;1.70;99.90
41294;DHT22;27037;52.010;4.446;2023-12-07T06:33:49;1.70;99.90
41294;DHT22;27037;52.010;4.446;2023-12-07T06:36:22;1.70;99.90
41294;DHT22;27037;52.010;4.446;2023-12-07T06:38:48;1.70;99.90
41294;DHT22;27037;52.010;4.446;2023-12-07T06:41:14;1.70;99.90
41294;DHT22;27037;52.010;4.446;2023-12-07T06:43:41;1.70;99.90
41294;DHT22;27037;52.010;4.446;2023-12-07T06:46:07;1.70;99.90
41294;DHT22;27037;52.010;4.446;2023-12-07T06:48:32;1.70;99.90
41294;DHT22;27037;52.010;4.446;2023-12-07T06:50:58;1.60;99.90
41294;DHT22;27037;52.010;4.446;2023-12-07T06:53:24;1.70;99.90
41294;DHT22;27037;52.010;4.446;2023-12-07T06:55:49;1.60;99.90
41294;DHT22;27037;52.010;4.446;2023-12-07T06:58:15;1.60;99.90
41294;DHT22;27037;52.010;4.446;2023-12-07T07:00:40;1.60;99.90
41294;DHT22;27037;52.010;4.446;2023-12-07T07:03:06;1.60;99.90
41294;DHT22;27037;52.010;4.446;2023-12-07T07:05:31;1.60;99.90
41294;DHT22;27037;52.010;4.446;2023-12-07T07:07:57;1.60;99.90
41294;DHT22;27037;52.010;4.446;2023-12-07T07:10:23;1.70;99.90
41294;DHT22;27037;52.010;4.446;2023-12-07T07:12:50;1.60;99.90
41294;DHT22;27037;52.010;4.446;2023-12-07T07:15:15;1.60;99.90
41294;DHT22;27037;52.010;4.446;2023-12-07T07:17:41;1.70;99.90
41294;DHT22;27037;52.010;4.446;2023-12-07T07:20:07;1.70;99.90
41294;DHT22;27037;52.010;4.446;2023-12-07T07:22:33;1.70;99.90
41294;DHT22;27037;52.010;4.446;2023-12-07T07:25:00;1.70;99.90
41294;DHT22;27037;52.010;4.446;2023-12-07T07:27:25;1.70;99.90
41294;DHT22;27037;52.010;4.446;2023-12-07T07:29:51;1.80;99.90
41294;DHT22;27037;52.010;4.446;2023-12-07T07:32:17;1.80;99.90
41294;DHT22;27037;52.010;4.446;2023-12-07T07:34:43;1.80;99.90
41294;DHT22;27037;52.010;4.446;2023-12-07T07:37:08;1.80;99.90
41294;DHT22;27037;52.010;4.446;2023-12-07T07:39:34;1.80;99.90
41294;DHT22;27037;52.010;4.446;2023-12-07T07:42:00;1.80;99.90
41294;DHT22;27037;52.010;4.446;2023-12-07T07:44:25;1.80;99.90
41294;DHT22;27037;52.010;4.446;2023-12-07T07:46:51;1.90;99.90
41294;DHT22;27037;52.010;4.446;2023-12-07T07:49:17;1.90;99.90
41294;DHT22;27037;52.010;4.446;2023-12-07T07:51:42;1.90;99.90
41294;DHT22;27037;52.010;4.446;2023-12-07T07:54:08;1.90;99.90
41294;DHT22;27037;52.010;4.446;2023-12-07T07:56:33;1.90;99.90
41294;DHT22;27037;52.010;4.446;2023-12-07T07:58:59;1.90;99.90
41294;DHT22;27037;52.010;4.446;2023-12-07T08:01:26;1.90;99.90
41294;DHT22;27037;52.010;4.446;2023-12-07T08:03:51;1.90;99.90
41294;DHT22;27037;52.010;4.446;2023-12-07T08:06:17;1.90;99.90
41294;DHT22;27037;52.010;4.446;2023-12-07T08:08:43;1.90;99.90
41294;DHT22;27037;52.010;4.446;2023-12-07T08:11:08;1.90;99.90
41294;DHT22;27037;52.010;4.446;2023-12-07T08:13:34;1.90;99.90
41294;DHT22;27037;52.010;4.446;2023-12-07T08:15:59;1.90;99.90
41294;DHT22;27037;52.010;4.446;2023-12-07T08:18:25;1.90;99.90
41294;DHT22;27037;52.010;4.446;2023-12-07T08:20:51;1.90;99.90
41294;DHT22;27037;52.010;4.446;2023-12-07T08:23:17;2.00;99.90
41294;DHT22;27037;52.010;4.446;2023-12-07T08:25:42;2.00;99.90
41294;DHT22;27037;52.010;4.446;2023-12-07T08:28:09;2.00;99.90
41294;DHT22;27037;52.010;4.446;2023-12-07T08:30:35;2.00;99.90
41294;DHT22;27037;52.010;4.446;2023-12-07T08:33:00;2.00;99.90
41294;DHT22;27037;52.010;4.446;2023-12-07T08:35:26;2.00;99.90
41294;DHT22;27037;52.010;4.446;2023-12-07T08:37:52;2.00;99.90
41294;DHT22;27037;52.010;4.446;2023-12-07T08:40:17;2.10;99.90
41294;DHT22;27037;52.010;4.446;2023-12-07T08:42:47;2.10;99.90
41294;DHT22;27037;52.010;4.446;2023-12-07T08:45:15;2.10;99.90
41294;DHT22;27037;52.010;4.446;2023-12-07T08:47:41;2.10;99.90
41294;DHT22;27037;52.010;4.446;2023-12-07T08:50:07;2.10;99.90
41294;DHT22;27037;52.010;4.446;2023-12-07T08:52:33;2.10;99.90
41294;DHT22;27037;52.010;4.446;2023-12-07T08:54:59;2.10;99.90
41294;DHT22;27037;52.010;4.446;2023-12-07T08:57:25;2.10;99.90
41294;DHT22;27037;52.010;4.446;2023-12-07T08:59:50;2.20;99.90
41294;DHT22;27037;52.010;4.446;2023-12-07T09:02:16;2.20;99.90
41294;DHT22;27037;52.010;4.446;2023-12-07T09:04:42;2.20;99.90
41294;DHT22;27037;52.010;4.446;2023-12-07T09:07:07;2.20;99.90
41294;DHT22;27037;52.010;4.446;2023-12-07T09:09:34;2.20;99.90
41294;DHT22;27037;52.010;4.446;2023-12-07T09:12:00;2.20;99.90
41294;DHT22;27037;52.010;4.446;2023-12-07T09:14:26;2.20;99.90
41294;DHT22;27037;52.010;4.446;2023-12-07T09:16:52;2.20;99.90
41294;DHT22;27037;52.010;4.446;2023-12-07T09:19:17;2.30;99.90
41294;DHT22;27037;52.010;4.446;2023-12-07T09:21:43;2.30;99.90
41294;DHT22;27037;52.010;4.446;2023-12-07T09:24:09;2.30;99.90
41294;DHT22;27037;52.010;4.446;2023-12-07T09:26:35;2.40;99.90
41294;DHT22;27037;52.010;4.446;2023-12-07T09:29:01;2.40;99.90
41294;DHT22;27037;52.010;4.446;2023-12-07T09:31:27;2.50;99.90
41294;DHT22;27037;52.010;4.446;2023-12-07T09:33:52;2.50;99.90
41294;DHT22;27037;52.010;4.446;2023-12-07T09:36:19;2.50;99.90
41294;DHT22;27037;52.010;4.446;2023-12-07T09:38:46;2.50;99.90
41294;DHT22;27037;52.010;4.446;2023-12-07T09:41:12;2.60;99.90
41294;DHT22;27037;52.010;4.446;2023-12-07T09:43:38;2.60;99.90
41294;DHT22;27037;52.010;4.446;2023-12-07T09:46:04;2.60;99.90
41294;DHT22;27037;52.010;4.446;2023-12-07T09:48:31;2.60;99.90
41294;DHT22;27037;52.010;4.446;2023-12-07T09:51:00;2.60;99.90
41294;DHT22;27037;52.010;4.446;2023-12-07T09:53:28;2.70;99.90
41294;DHT22;27037;52.010;4.446;2023-12-07T09:55:54;2.70;99.90
41294;DHT22;27037;52.010;4.446;2023-12-07T09:58:20;2.70;99.90
41294;DHT22;27037;52.010;4.446;2023-12-07T10:00:47;2.70;99.90
41294;DHT22;27037;52.010;4.446;2023-12-07T10:03:23;2.70;99.90
41294;DHT22;27037;52.010;4.446;2023-12-07T10:05:56;2.80;99.90
41294;DHT22;27037;52.010;4.446;2023-12-07T10:08:29;2.80;99.90
41294;DHT22;27037;52.010;4.446;2023-12-07T10:11:08;2.80;99.90
41294;DHT22;27037;52.010;4.446;2023-12-07T10:13:35;2.80;99.90
41294;DHT22;27037;52.010;4.446;2023-12-07T10:16:10;2.80;99.90
41294;DHT22;27037;52.010;4.446;2023-12-07T10:18:36;2.90;99.90
41294;DHT22;27037;52.010;4.446;2023-12-07T10:21:02;2.90;99.90
41294;DHT22;27037;52.010;4.446;2023-12-07T10:23:28;2.90;99.90
41294;DHT22;27037;52.010;4.446;2023-12-07T10:25:58;2.90;99.90
41294;DHT22;27037;52.010;4.446;2023-12-07T10:28:25;3.00;99.90
41294;DHT22;27037;52.010;4.446;2023-12-07T10:30:50;3.00;99.90
41294;DHT22;27037;52.010;4.446;2023-12-07T10:33:16;3.10;99.90
41294;DHT22;27037;52.010;4.446;2023-12-07T10:35:42;3.10;99.90
41294;DHT22;27037;52.010;4.446;2023-12-07T10:38:09;3.10;99.90
41294;DHT22;27037;52.010;4.446;2023-12-07T10:40:34;3.20;99.90
41294;DHT22;27037;52.010;4.446;2023-12-07T10:43:07;3.20;99.90
41294;DHT22;27037;52.010;4.446;2023-12-07T10:45:33;3.30;99.90
41294;DHT22;27037;52.010;4.446;2023-12-07T10:48:05;3.30;99.90
41294;DHT22;27037;52.010;4.446;2023-12-07T10:50:32;3.40;99.90
41294;DHT22;27037;52.010;4.446;2023-12-07T10:53:04;3.40;99.90
41294;DHT22;27037;52.010;4.446;2023-12-07T10:55:39;3.50;99.90
41294;DHT22;27037;52.010;4.446;2023-12-07T10:58:07;3.50;99.90
41294;DHT22;27037;52.010;4.446;2023-12-07T11:00:34;3.60;99.90
41294;DHT22;27037;52.010;4.446;2023-12-07T11:03:00;3.60;99.90
41294;DHT22;27037;52.010;4.446;2023-12-07T11:05:28;3.60;99.90
41294;DHT22;27037;52.010;4.446;2023-12-07T11:08:05;3.60;99.90
41294;DHT22;27037;52.010;4.446;2023-12-07T11:10:43;3.60;99.90
41294;DHT22;27037;52.010;4.446;2023-12-07T11:13:26;3.60;99.90
41294;DHT22;27037;52.010;4.446;2023-12-07T11:15:52;3.60;99.90
41294;DHT22;27037;52.010;4.446;2023-12-07T11:18:18;3.60;99.90
41294;DHT22;27037;52.010;4.446;2023-12-07T11:20:45;3.70;99.90
41294;DHT22;27037;52.010;4.446;2023-12-07T11:23:16;3.60;99.90
41294;DHT22;27037;52.010;4.446;2023-12-07T11:25:43;3.60;99.90
41294;DHT22;27037;52.010;4.446;2023-12-07T11:28:10;3.60;99.90
41294;DHT22;27037;52.010;4.446;2023-12-07T11:30:37;3.60;99.90
41294;DHT22;27037;52.010;4.446;2023-12-07T11:33:06;3.60;99.90
41294;DHT22;27037;52.010;4.446;2023-12-07T11:35:32;3.70;99.90
41294;DHT22;27037;52.010;4.446;2023-12-07T11:38:08;3.70;99.90
41294;DHT22;27037;52.010;4.446;2023-12-07T11:40:43;3.70;99.90
41294;DHT22;27037;52.010;4.446;2023-12-07T11:43:36;3.70;99.90
41294;DHT22;27037;52.010;4.446;2023-12-07T11:46:06;3.80;99.90
41294;DHT22;27037;52.010;4.446;2023-12-07T11:48:32;3.80;99.90
41294;DHT22;27037;52.010;4.446;2023-12-07T11:51:05;3.80;99.90
41294;DHT22;27037;52.010;4.446;2023-12-07T11:53:34;3.80;99.90
41294;DHT22;27037;52.010;4.446;2023-12-07T11:56:08;3.90;99.90
41294;DHT22;27037;52.010;4.446;2023-12-07T11:58:36;3.90;99.90
41294;DHT22;27037;52.010;4.446;2023-12-07T12:01:02;4.00;99.90
41294;DHT22;27037;52.010;4.446;2023-12-07T12:03:29;4.00;99.90
41294;DHT22;27037;52.010;4.446;2023-12-07T12:05:55;4.10;99.90
41294;DHT22;27037;52.010;4.446;2023-12-07T12:08:22;4.10;99.90
41294;DHT22;27037;52.010;4.446;2023-12-07T12:10:49;4.10;99.90
41294;DHT22;27037;52.010;4.446;2023-12-07T12:13:17;4.10;99.90
41294;DHT22;27037;52.010;4.446;2023-12-07T12:15:43;4.20;99.90
41294;DHT22;27037;52.010;4.446;2023-12-07T12:18:09;4.20;99.90
41294;DHT22;27037;52.010;4.446;2023-12-07T12:20:35;4.10;99.90
41294;DHT22;27037;52.010;4.446;2023-12-07T12:23:01;4.10;99.90
41294;DHT22;27037;52.010;4.446;2023-12-07T12:25:30;4.10;99.90
41294;DHT22;27037;52.010;4.446;2023-12-07T12:28:06;4.10;99.90
41294;DHT22;27037;52.010;4.446;2023-12-07T12:30:33;4.00;99.90
41294;DHT22;27037;52.010;4.446;2023-12-07T12:32:59;4.00;99.90
41294;DHT22;27037;52.010;4.446;2023-12-07T12:35:28;4.00;99.90
41294;DHT22;27037;52.010;4.446;2023-12-07T12:37:54;4.00;99.90
41294;DHT22;27037;52.010;4.446;2023-12-07T12:40:22;4.00;99.90
41294;DHT22;27037;52.010;4.446;2023-12-07T12:42:49;4.00;99.90
41294;DHT22;27037;52.010;4.446;2023-12-07T12:45:15;4.00;99.90
41294;DHT22;27037;52.010;4.446;2023-12-07T12:47:42;4.00;99.90
41294;DHT22;27037;52.010;4.446;2023-12-07T12:50:12;4.00;99.90
41294;DHT22;27037;52.010;4.446;2023-12-07T12:52:39;4.00;99.90
41294;DHT22;27037;52.010;4.446;2023-12-07T12:55:11;4.10;99.90
41294;DHT22;27037;52.010;4.446;2023-12-07T12:57:37;4.10;99.90
41294;DHT22;27037;52.010;4.446;2023-12-07T13:00:04;4.10;99.90
41294;DHT22;27037;52.010;4.446;2023-12-07T13:02:32;4.10;99.90
41294;DHT22;27037;52.010;4.446;2023-12-07T13:04:58;4.10;99.90
41294;DHT22;27037;52.010;4.446;2023-12-07T13:07:23;4.20;99.90
41294;DHT22;27037;52.010;4.446;2023-12-07T13:09:52;4.20;99.90
41294;DHT22;27037;52.010;4.446;2023-12-07T13:12:18;4.20;99.90
41294;DHT22;27037;52.010;4.446;2023-12-07T13:14:43;4.20;99.90
41294;DHT22;27037;52.010;4.446;2023-12-07T13:17:09;4.20;99.90
41294;DHT22;27037;52.010;4.446;2023-12-07T13:19:34;4.20;99.90
41294;DHT22;27037;52.010;4.446;2023-12-07T13:22:01;4.20;99.90
41294;DHT22;27037;52.010;4.446;2023-12-07T13:24:28;4.20;99.90
41294;DHT22;27037;52.010;4.446;2023-12-07T13:26:54;4.20;99.90
41294;DHT22;27037;52.010;4.446;2023-12-07T13:29:19;4.20;99.90
41294;DHT22;27037;52.010;4.446;2023-12-07T13:31:45;4.20;99.90
41294;DHT22;27037;52.010;4.446;2023-12-07T13:34:12;4.20;99.90
41294;DHT22;27037;52.010;4.446;2023-12-07T13:36:39;4.20;99.90
41294;DHT22;27037;52.010;4.446;2023-12-07T13:39:04;4.20;99.90
41294;DHT22;27037;52.010;4.446;2023-12-07T13:41:30;4.20;99.90
41294;DHT22;27037;52.010;4.446;2023-12-07T13:43:56;4.20;99.90
41294;DHT22;27037;52.010;4.446;2023-12-07T13:46:21;4.20;99.90
41294;DHT22;27037;52.010;4.446;2023-12-07T13:48:47;4.20;99.90
41294;DHT22;27037;52.010;4.446;2023-12-07T13:51:13;4.20;99.90
41294;DHT22;27037;52.010;4.446;2023-12-07T13:53:39;4.20;99.90
41294;DHT22;27037;52.010;4.446;2023-12-07T13:56:05;4.20;99.90
41294;DHT22;27037;52.010;4.446;2023-12-07T13:58:32;4.20;99.90
41294;DHT22;27037;52.010;4.446;2023-12-07T14:00:57;4.20;99.90
41294;DHT22;27037;52.010;4.446;2023-12-07T14:03:23;4.20;99.90
41294;DHT22;27037;52.010;4.446;2023-12-07T14:05:49;4.20;99.90
41294;DHT22;27037;52.010;4.446;2023-12-07T14:08:14;4.20;99.90
41294;DHT22;27037;52.010;4.446;2023-12-07T14:10:40;4.20;99.90
41294;DHT22;27037;52.010;4.446;2023-12-07T14:13:06;4.20;99.90
41294;DHT22;27037;52.010;4.446;2023-12-07T14:15:31;4.20;99.90
41294;DHT22;27037;52.010;4.446;2023-12-07T14:18:01;4.10;99.90
41294;DHT22;27037;52.010;4.446;2023-12-07T14:20:26;4.10;99.90
41294;DHT22;27037;52.010;4.446;2023-12-07T14:22:54;4.10;99.90
41294;DHT22;27037;52.010;4.446;2023-12-07T14:25:19;4.10;99.90
41294;DHT22;27037;52.010;4.446;2023-12-07T14:27:45;4.10;99.90
41294;DHT22;27037;52.010;4.446;2023-12-07T14:30:11;4.10;99.90
41294;DHT22;27037;52.010;4.446;2023-12-07T14:32:37;4.00;99.90
41294;DHT22;27037;52.010;4.446;2023-12-07T14:35:03;4.00;99.90
41294;DHT22;27037;52.010;4.446;2023-12-07T14:37:29;4.00;99.90
41294;DHT22;27037;52.010;4.446;2023-12-07T14:39:54;4.00;99.90
41294;DHT22;27037;52.010;4.446;2023-12-07T14:42:20;4.00;99.90
41294;DHT22;27037;52.010;4.446;2023-12-07T14:44:45;4.00;99.90
41294;DHT22;27037;52.010;4.446;2023-12-07T14:47:11;4.00;99.90
41294;DHT22;27037;52.010;4.446;2023-12-07T14:49:37;3.90;99.90
41294;DHT22;27037;52.010;4.446;2023-12-07T14:52:03;3.90;99.90
41294;DHT22;27037;52.010;4.446;2023-12-07T14:54:29;3.90;99.90
41294;DHT22;27037;52.010;4.446;2023-12-07T14:56:56;3.90;99.90
41294;DHT22;27037;52.010;4.446;2023-12-07T14:59:22;3.90;99.90
41294;DHT22;27037;52.010;4.446;2023-12-07T15:01:47;3.90;99.90
41294;DHT22;27037;52.010;4.446;2023-12-07T15:04:15;3.90;99.90
41294;DHT22;27037;52.010;4.446;2023-12-07T15:06:40;3.90;99.90
41294;DHT22;27037;52.010;4.446;2023-12-07T15:09:06;3.80;99.90
41294;DHT22;27037;52.010;4.446;2023-12-07T15:11:33;3.80;99.90
41294;DHT22;27037;52.010;4.446;2023-12-07T15:13:59;3.80;99.90
41294;DHT22;27037;52.010;4.446;2023-12-07T15:16:25;3.80;99.90
41294;DHT22;27037;52.010;4.446;2023-12-07T15:18:51;3.80;99.90
41294;DHT22;27037;52.010;4.446;2023-12-07T15:21:17;3.80;99.90
41294;DHT22;27037;52.010;4.446;2023-12-07T15:23:44;3.80;99.90
41294;DHT22;27037;52.010;4.446;2023-12-07T15:26:10;3.70;99.90
41294;DHT22;27037;52.010;4.446;2023-12-07T15:28:36;3.70;99.90
41294;DHT22;27037;52.010;4.446;2023-12-07T15:31:06;3.70;99.90
41294;DHT22;27037;52.010;4.446;2023-12-07T15:33:32;3.70;99.90
41294;DHT22;27037;52.010;4.446;2023-12-07T15:35:59;3.70;99.90
41294;DHT22;27037;52.010;4.446;2023-12-07T15:38:25;3.70;99.90
41294;DHT22;27037;52.010;4.446;2023-12-07T15:40:51;3.60;99.90